Djanet, Algeria
Current Conditions -  °F | °C
As of 2:00 PM on Tuesday 21 Oct 2014 (Local Time) from DAAJ Reporting Station
Clear Clear  
Wind Chill: 82°   Ceiling: Unl
Heat Index: 82°   Visibility: 6mi
Dew Point: 45°   Wind: 9mph
Humidity: 26%   Direction: 270°W
Pressure: 30.12"   Gusts: NA
Location:  24.55°N, 9.48°E
Report Text: DAAJ 211300Z 27008KT CAVOK 28/07 Q1020
Loading
Personal Weather Stations






























Interactive Weather Map
Tropical Storm Tracking
New forecast layout! Learn more

10-Day Weather Forecast

Advertisements
Track Severe Weather on mobile